createdAt,value
2023-03-27T00:00:19.196Z,23.06
2023-03-27T00:01:19.247Z,23.06
2023-03-27T00:02:19.353Z,23.05
2023-03-27T00:03:19.398Z,23.06
2023-03-27T00:04:19.405Z,23.06
2023-03-27T00:05:19.385Z,23.06
2023-03-27T00:06:19.435Z,23.06
2023-03-27T00:07:19.465Z,23.06
2023-03-27T00:08:19.588Z,23.07
2023-03-27T00:09:19.550Z,23.07
2023-03-27T00:10:19.634Z,23.07
2023-03-27T00:11:20.148Z,23.07
2023-03-27T00:12:19.662Z,23.07
2023-03-27T00:13:19.695Z,23.06
2023-03-27T00:14:19.747Z,23.06
2023-03-27T00:15:19.799Z,23.05
2023-03-27T00:16:19.869Z,23.05
2023-03-27T00:17:19.954Z,23.05
2023-03-27T00:18:19.912Z,23.05
2023-03-27T00:19:19.974Z,23.04
2023-03-27T00:20:20.000Z,23.03
2023-03-27T00:21:20.039Z,23.03
2023-03-27T00:22:20.085Z,23.03
2023-03-27T00:23:20.152Z,23.02
2023-03-27T00:24:20.173Z,23.02
2023-03-27T00:25:20.226Z,23.01
2023-03-27T00:26:20.277Z,23.01
2023-03-27T00:27:20.301Z,23.01
2023-03-27T00:28:20.359Z,23.01
2023-03-27T00:29:20.400Z,23.00
2023-03-27T00:30:20.458Z,23.01
2023-03-27T00:31:20.543Z,23.00
2023-03-27T00:32:20.539Z,23.00
2023-03-27T00:33:20.587Z,23.00
2023-03-27T00:34:20.639Z,22.99
2023-03-27T00:35:20.708Z,23.00
2023-03-27T00:36:20.721Z,22.99
2023-03-27T00:37:20.762Z,22.99
2023-03-27T00:38:20.804Z,22.99
2023-03-27T00:39:20.848Z,22.98
2023-03-27T00:40:20.905Z,22.98
2023-03-27T00:41:21.033Z,22.98
2023-03-27T00:42:21.003Z,22.98
2023-03-27T00:43:21.050Z,22.97
2023-03-27T00:44:21.101Z,22.97
2023-03-27T00:45:21.147Z,22.98
2023-03-27T00:46:21.292Z,22.97
2023-03-27T00:47:21.241Z,22.97
2023-03-27T00:48:21.292Z,22.97
2023-03-27T00:49:21.423Z,22.98
2023-03-27T00:50:21.393Z,22.98
2023-03-27T00:51:21.467Z,22.98
2023-03-27T00:52:21.494Z,22.97
2023-03-27T00:53:21.539Z,22.97
2023-03-27T00:54:21.581Z,22.98
2023-03-27T00:55:21.637Z,22.98
2023-03-27T00:56:21.756Z,22.97
2023-03-27T00:57:21.725Z,22.98
2023-03-27T00:58:21.773Z,22.98
2023-03-27T00:59:21.819Z,22.97
2023-03-27T01:00:22.639Z,22.98
2023-03-27T01:01:21.963Z,22.98
2023-03-27T01:02:22.030Z,22.98
2023-03-27T01:03:22.079Z,22.98
2023-03-27T01:04:22.053Z,22.98
2023-03-27T01:05:22.098Z,22.98
2023-03-27T01:06:22.176Z,22.98
2023-03-27T01:07:22.203Z,22.98
2023-03-27T01:08:22.265Z,22.99
2023-03-27T01:09:22.370Z,22.99
2023-03-27T01:10:22.368Z,23.00
2023-03-27T01:11:22.458Z,23.00
2023-03-27T01:12:23.210Z,23.00
2023-03-27T01:13:22.524Z,23.00
2023-03-27T01:14:22.556Z,23.00
2023-03-27T01:15:23.145Z,23.00
2023-03-27T01:16:22.673Z,23.00
2023-03-27T01:17:22.746Z,23.00
2023-03-27T01:18:22.738Z,22.99
2023-03-27T01:19:22.790Z,22.99
2023-03-27T01:20:22.833Z,23.00
2023-03-27T01:21:22.884Z,23.01
2023-03-27T01:22:22.955Z,23.00
2023-03-27T01:23:35.505Z,23.01
2023-03-27T01:24:24.161Z,23.00
2023-03-27T01:25:22.963Z,23.01
2023-03-27T01:26:35.601Z,23.01
2023-03-27T01:27:23.967Z,23.01
2023-03-27T01:28:22.955Z,23.01
2023-03-27T01:29:22.951Z,23.02
2023-03-27T01:30:22.986Z,23.02
2023-03-27T01:31:22.969Z,23.02
2023-03-27T01:32:23.013Z,23.02
2023-03-27T01:33:22.912Z,23.03
2023-03-27T01:34:22.904Z,23.02
2023-03-27T01:35:22.941Z,23.02
2023-03-27T01:36:22.887Z,23.03
2023-03-27T01:37:22.880Z,23.03
2023-03-27T01:38:22.902Z,23.02
2023-03-27T01:39:22.942Z,23.02
2023-03-27T01:40:22.989Z,23.03
2023-03-27T01:41:23.015Z,23.03
2023-03-27T01:42:23.052Z,23.03
2023-03-27T01:43:23.116Z,23.03
2023-03-27T01:44:23.142Z,23.03
2023-03-27T01:45:24.162Z,23.03
2023-03-27T01:46:23.248Z,23.04
2023-03-27T01:47:23.705Z,23.03
2023-03-27T01:48:23.308Z,23.04
2023-03-27T01:49:23.338Z,23.04
2023-03-27T01:50:23.376Z,23.04
2023-03-27T01:51:23.459Z,23.04
2023-03-27T01:52:23.439Z,23.04
2023-03-27T01:53:23.474Z,23.05
2023-03-27T01:54:23.523Z,23.05
2023-03-27T01:55:23.564Z,23.05
2023-03-27T01:56:23.660Z,23.05
2023-03-27T01:57:23.641Z,23.05
2023-03-27T01:58:23.694Z,23.05
2023-03-27T01:59:23.838Z,23.06
2023-03-27T02:00:23.750Z,23.05
2023-03-27T02:01:23.812Z,23.05
2023-03-27T02:02:23.877Z,23.05
2023-03-27T02:03:23.909Z,23.05
2023-03-27T02:04:23.980Z,23.05
2023-03-27T02:05:23.974Z,23.05
2023-03-27T02:06:24.019Z,23.05
2023-03-27T02:07:24.089Z,23.05
2023-03-27T02:08:24.137Z,23.05
2023-03-27T02:09:24.173Z,23.05
2023-03-27T02:10:24.217Z,23.05
2023-03-27T02:11:24.257Z,23.05
2023-03-27T02:12:24.302Z,23.04
2023-03-27T02:13:24.334Z,23.05
2023-03-27T02:14:24.373Z,23.05
2023-03-27T02:15:26.268Z,23.05
2023-03-27T02:16:24.471Z,23.05
2023-03-27T02:17:24.522Z,23.06
2023-03-27T02:18:24.510Z,23.06
2023-03-27T02:19:24.554Z,23.05
2023-03-27T02:20:24.678Z,23.04
2023-03-27T02:21:24.631Z,23.05
2023-03-27T02:22:37.498Z,23.05
2023-03-27T02:23:25.666Z,23.04
2023-03-27T02:24:24.666Z,23.05
2023-03-27T02:25:24.664Z,23.05
2023-03-27T02:26:24.646Z,23.05
2023-03-27T02:27:24.662Z,23.06
2023-03-27T02:28:24.628Z,23.06
2023-03-27T02:29:24.621Z,23.06
2023-03-27T02:30:24.614Z,23.07
2023-03-27T02:31:32.601Z,23.07
2023-03-27T02:32:25.662Z,23.08
2023-03-27T02:33:24.598Z,23.08
2023-03-27T02:34:24.600Z,23.09
2023-03-27T02:35:24.610Z,23.10
2023-03-27T02:36:24.638Z,23.10
2023-03-27T02:37:32.372Z,23.12
2023-03-27T02:38:25.674Z,23.12
2023-03-27T02:39:24.688Z,23.13
2023-03-27T02:40:24.695Z,23.14
2023-03-27T02:41:24.707Z,23.15
2023-03-27T02:42:24.725Z,23.16
2023-03-27T02:43:24.750Z,23.17
2023-03-27T02:44:24.782Z,23.20
2023-03-27T02:45:24.810Z,23.22
2023-03-27T02:46:24.894Z,23.22
2023-03-27T02:47:24.901Z,23.23
2023-03-27T02:48:24.872Z,23.25
2023-03-27T02:49:24.887Z,23.25
2023-03-27T02:50:24.936Z,23.26
2023-03-27T02:51:24.934Z,23.27
2023-03-27T02:52:24.967Z,23.27
2023-03-27T02:53:24.981Z,23.29
2023-03-27T02:54:25.006Z,23.30
2023-03-27T02:55:25.011Z,23.31
2023-03-27T02:56:25.010Z,23.31
2023-03-27T02:57:25.341Z,23.32
2023-03-27T02:58:25.034Z,23.32
2023-03-27T02:59:25.080Z,23.33
2023-03-27T03:00:25.097Z,23.34
2023-03-27T03:01:25.146Z,23.34
2023-03-27T03:02:25.189Z,23.35
2023-03-27T03:03:25.168Z,23.37
2023-03-27T03:04:25.177Z,23.38
2023-03-27T03:05:25.113Z,23.38
2023-03-27T03:06:25.138Z,23.39
2023-03-27T03:07:25.144Z,23.39
2023-03-27T03:08:25.146Z,23.40
2023-03-27T03:09:25.157Z,23.40
2023-03-27T03:10:25.169Z,23.41
2023-03-27T03:11:25.163Z,23.41
2023-03-27T03:12:25.162Z,23.43
2023-03-27T03:13:25.188Z,23.44
2023-03-27T03:14:25.181Z,23.44
2023-03-27T03:15:25.179Z,23.45
2023-03-27T03:16:25.184Z,23.46
2023-03-27T03:17:25.203Z,23.46
2023-03-27T03:18:25.193Z,23.46
2023-03-27T03:19:25.186Z,23.46
2023-03-27T03:20:25.176Z,23.46
2023-03-27T03:21:25.182Z,23.47
2023-03-27T03:22:25.181Z,23.46
2023-03-27T03:23:25.175Z,23.47
2023-03-27T03:24:25.197Z,23.48
2023-03-27T03:25:25.183Z,23.49
2023-03-27T03:26:25.177Z,23.49
2023-03-27T03:27:25.173Z,23.50
2023-03-27T03:28:25.231Z,23.51
2023-03-27T03:29:25.190Z,23.51
2023-03-27T03:30:25.201Z,23.52
2023-03-27T03:31:25.212Z,23.52
2023-03-27T03:32:25.230Z,23.52
2023-03-27T03:33:25.192Z,23.53
2023-03-27T03:34:25.203Z,23.53
2023-03-27T03:35:25.260Z,23.52
2023-03-27T03:36:25.224Z,23.53
2023-03-27T03:37:25.221Z,23.53
2023-03-27T03:38:25.223Z,23.52
2023-03-27T03:39:25.245Z,23.52
2023-03-27T03:40:25.250Z,23.52
2023-03-27T03:41:25.260Z,23.52
2023-03-27T03:43:25.262Z,23.51
2023-03-27T03:44:25.724Z,23.52
2023-03-27T03:45:25.277Z,23.52
2023-03-27T03:47:25.293Z,23.52
2023-03-27T03:48:25.331Z,23.51
2023-03-27T03:49:25.302Z,23.52
2023-03-27T03:50:25.728Z,23.51
2023-03-27T03:51:25.284Z,23.52
2023-03-27T03:52:25.284Z,23.52
2023-03-27T03:53:25.286Z,23.51
2023-03-27T03:54:25.286Z,23.51
2023-03-27T03:55:25.289Z,23.52
2023-03-27T03:56:25.273Z,23.52
2023-03-27T03:57:25.291Z,23.52
2023-03-27T03:59:25.332Z,23.52
2023-03-27T04:00:25.720Z,23.52
2023-03-27T04:01:25.317Z,23.52
2023-03-27T04:03:25.397Z,23.52
2023-03-27T04:04:25.305Z,23.53
2023-03-27T04:05:25.318Z,23.52
2023-03-27T04:07:25.319Z,23.51
2023-03-27T04:08:25.319Z,23.52
2023-03-27T04:09:25.308Z,23.51
2023-03-27T04:11:25.313Z,23.50
2023-03-27T04:12:25.322Z,23.50
2023-03-27T04:13:25.339Z,23.50
2023-03-27T04:15:25.350Z,23.50
2023-03-27T04:16:25.359Z,23.50
2023-03-27T04:17:25.416Z,23.50
2023-03-27T04:18:25.401Z,23.49
2023-03-27T04:19:26.218Z,23.49
2023-03-27T04:20:25.344Z,23.49
2023-03-27T04:21:25.357Z,23.49
2023-03-27T04:22:25.358Z,23.49
2023-03-27T04:23:25.359Z,23.48
2023-03-27T04:24:25.364Z,23.47
2023-03-27T04:25:26.218Z,23.48
2023-03-27T04:27:25.372Z,23.48
2023-03-27T04:28:25.374Z,23.48
2023-03-27T04:29:25.425Z,23.48
2023-03-27T04:31:25.393Z,23.47
2023-03-27T04:32:25.505Z,23.47
2023-03-27T04:33:25.405Z,23.46
2023-03-27T04:34:26.405Z,23.46
2023-03-27T04:35:25.422Z,23.46
2023-03-27T04:36:25.518Z,23.46
2023-03-27T04:37:25.381Z,23.46
2023-03-27T04:38:25.384Z,23.46
2023-03-27T04:39:25.418Z,23.46
2023-03-27T04:40:25.360Z,23.45
2023-03-27T04:41:26.230Z,23.45
2023-03-27T04:43:25.353Z,23.45
2023-03-27T04:44:25.346Z,23.45
2023-03-27T04:45:25.330Z,23.45
2023-03-27T04:47:25.388Z,23.45
2023-03-27T04:48:26.232Z,23.44
2023-03-27T04:49:25.296Z,23.44
2023-03-27T04:51:25.282Z,23.43
2023-03-27T04:52:25.285Z,23.43
2023-03-27T04:53:25.274Z,23.43
2023-03-27T04:55:25.360Z,23.43
2023-03-27T04:56:25.258Z,23.43
2023-03-27T04:57:25.250Z,23.43
2023-03-27T04:59:25.260Z,23.42
2023-03-27T05:00:25.300Z,23.43
2023-03-27T05:01:25.427Z,23.43
2023-03-27T05:03:25.318Z,23.42
2023-03-27T05:04:25.318Z,23.41
2023-03-27T05:05:25.342Z,23.42
2023-03-27T05:06:25.351Z,23.41
2023-03-27T05:07:25.369Z,23.42
2023-03-27T05:08:25.444Z,23.42
2023-03-27T05:09:25.469Z,23.42
2023-03-27T05:10:25.492Z,23.42
2023-03-27T05:11:25.499Z,23.40
2023-03-27T05:12:25.518Z,23.42
2023-03-27T05:13:25.515Z,23.41
2023-03-27T05:14:25.537Z,23.42
2023-03-27T05:15:25.555Z,23.42
2023-03-27T05:16:25.599Z,23.42
2023-03-27T05:17:25.598Z,23.42
2023-03-27T05:18:25.598Z,23.42
2023-03-27T05:19:26.746Z,23.43
2023-03-27T05:20:25.686Z,23.43
2023-03-27T05:21:25.706Z,23.43
2023-03-27T05:22:25.719Z,23.44
2023-03-27T05:23:25.735Z,23.45
2023-03-27T05:24:25.755Z,23.48
2023-03-27T05:25:25.760Z,23.50
2023-03-27T05:26:25.769Z,23.53
2023-03-27T05:27:25.782Z,23.56
2023-03-27T05:28:25.772Z,23.59
2023-03-27T05:29:25.768Z,23.61
2023-03-27T05:30:25.849Z,23.63
2023-03-27T05:31:25.856Z,23.66
2023-03-27T05:32:25.928Z,23.68
2023-03-27T05:33:26.291Z,23.72
2023-03-27T05:34:25.992Z,23.75
2023-03-27T05:35:26.091Z,23.79
2023-03-27T05:36:26.094Z,23.82
2023-03-27T05:37:27.435Z,23.86
2023-03-27T05:38:26.190Z,23.89
2023-03-27T05:39:26.235Z,23.92
2023-03-27T05:40:26.294Z,23.96
2023-03-27T05:41:26.313Z,23.99
2023-03-27T05:42:26.352Z,24.01
2023-03-27T05:43:26.393Z,24.04
2023-03-27T05:44:26.421Z,24.06
2023-03-27T05:45:26.445Z,24.08
2023-03-27T05:46:26.518Z,24.11
2023-03-27T05:47:26.515Z,24.13
2023-03-27T05:48:26.518Z,24.15
2023-03-27T05:49:26.519Z,24.18
2023-03-27T05:50:26.542Z,24.20
2023-03-27T05:51:26.550Z,24.22
2023-03-27T05:52:28.796Z,24.23
2023-03-27T05:53:29.013Z,24.26
2023-03-27T05:54:26.640Z,24.28
2023-03-27T05:55:27.944Z,24.29
2023-03-27T05:56:26.632Z,24.31
2023-03-27T05:57:26.633Z,24.32
2023-03-27T05:59:26.624Z,24.36
2023-03-27T06:00:26.622Z,24.37
2023-03-27T06:01:26.619Z,24.39
2023-03-27T06:03:27.364Z,24.44
2023-03-27T06:04:26.668Z,24.44
2023-03-27T06:05:26.795Z,24.47
2023-03-27T06:07:26.724Z,24.49
2023-03-27T06:08:26.733Z,24.52
2023-03-27T06:09:26.755Z,24.53
2023-03-27T06:10:26.801Z,24.56
2023-03-27T06:11:26.855Z,24.57
2023-03-27T06:12:26.915Z,24.59
2023-03-27T06:13:26.953Z,24.60
2023-03-27T06:14:27.010Z,24.62
2023-03-27T06:15:27.071Z,24.62
2023-03-27T06:16:27.276Z,24.63
2023-03-27T06:17:27.192Z,24.65
2023-03-27T06:18:27.240Z,24.66
2023-03-27T06:19:27.327Z,24.68
2023-03-27T06:20:27.357Z,24.69
2023-03-27T06:21:27.426Z,24.69
2023-03-27T06:22:27.463Z,24.71
2023-03-27T06:23:27.527Z,24.72
2023-03-27T06:24:27.572Z,24.74
2023-03-27T06:25:27.639Z,24.76
2023-03-27T06:26:27.680Z,24.75
2023-03-27T06:27:27.718Z,24.35
2023-03-27T06:28:27.731Z,23.81
2023-03-27T06:29:27.760Z,23.25
2023-03-27T06:30:27.816Z,22.93
2023-03-27T06:31:27.856Z,22.82
2023-03-27T06:32:27.875Z,22.73
2023-03-27T06:33:27.856Z,22.68
2023-03-27T06:34:27.856Z,22.68
2023-03-27T06:35:27.928Z,22.72
2023-03-27T06:36:28.029Z,22.77
2023-03-27T06:37:27.972Z,22.83
2023-03-27T06:38:27.978Z,22.89
2023-03-27T06:39:28.773Z,22.97
2023-03-27T06:40:28.216Z,23.04
2023-03-27T06:41:28.101Z,23.13
2023-03-27T06:42:28.126Z,23.21
2023-03-27T06:43:28.145Z,23.30
2023-03-27T06:44:28.201Z,23.38
2023-03-27T06:45:28.190Z,23.45
2023-03-27T06:46:42.815Z,23.52
2023-03-27T06:47:29.391Z,23.59
2023-03-27T06:48:28.445Z,23.63
2023-03-27T06:49:28.389Z,23.69
2023-03-27T06:50:28.413Z,23.77
2023-03-27T06:51:28.410Z,23.87
2023-03-27T06:52:28.433Z,23.96
2023-03-27T06:53:29.549Z,24.04
2023-03-27T06:54:28.800Z,24.12
2023-03-27T06:55:28.657Z,24.18
2023-03-27T06:56:28.582Z,24.25
2023-03-27T06:57:28.579Z,24.30
2023-03-27T06:58:28.612Z,24.35
2023-03-27T06:59:28.609Z,24.40
2023-03-27T07:00:28.654Z,24.44
2023-03-27T07:01:28.716Z,24.48
2023-03-27T07:02:28.759Z,24.51
2023-03-27T07:03:28.776Z,24.55
2023-03-27T07:04:28.833Z,24.57
2023-03-27T07:05:29.003Z,24.60
2023-03-27T07:06:28.953Z,24.62
2023-03-27T07:07:29.019Z,24.64
2023-03-27T07:08:29.064Z,24.67
2023-03-27T07:09:29.102Z,24.68
2023-03-27T07:10:29.157Z,24.71
2023-03-27T07:11:31.695Z,24.73
2023-03-27T07:12:29.181Z,24.74
2023-03-27T07:13:29.181Z,24.75
2023-03-27T07:15:29.169Z,24.78
2023-03-27T07:16:29.201Z,24.78
2023-03-27T07:17:41.875Z,24.79
2023-03-27T07:18:30.177Z,24.79
2023-03-27T07:19:29.139Z,24.80
2023-03-27T07:20:29.238Z,24.80
2023-03-27T07:21:29.132Z,24.80
2023-03-27T07:23:29.127Z,24.80
2023-03-27T07:24:29.139Z,24.79
2023-03-27T07:25:29.786Z,24.79
2023-03-27T07:27:29.161Z,24.77
2023-03-27T07:28:29.786Z,24.76
2023-03-27T07:29:29.262Z,24.76
2023-03-27T07:30:29.296Z,24.74
2023-03-27T07:31:42.409Z,24.73
2023-03-27T07:32:37.280Z,24.71
2023-03-27T07:33:30.407Z,24.69
2023-03-27T07:35:29.323Z,24.67
2023-03-27T07:36:29.294Z,24.66
2023-03-27T07:37:29.272Z,24.65
2023-03-27T07:39:29.264Z,24.63
2023-03-27T07:40:38.929Z,24.62
2023-03-27T07:41:30.268Z,24.61
2023-03-27T07:43:29.754Z,24.60
2023-03-27T07:44:29.213Z,24.59
2023-03-27T07:45:29.221Z,24.58
2023-03-27T07:46:29.268Z,24.56
2023-03-27T07:47:29.282Z,24.55
2023-03-27T07:48:29.195Z,24.53
2023-03-27T07:49:38.865Z,24.53
2023-03-27T07:50:30.180Z,24.50
2023-03-27T07:51:29.163Z,24.50
2023-03-27T07:52:29.160Z,24.50
2023-03-27T07:53:33.318Z,24.49
2023-03-27T07:54:30.164Z,24.48
2023-03-27T07:55:29.151Z,24.47
2023-03-27T07:56:29.134Z,24.47
2023-03-27T07:57:29.275Z,24.46
2023-03-27T07:59:29.115Z,24.45
2023-03-27T08:00:29.109Z,24.45
2023-03-27T08:01:29.093Z,24.44
2023-03-27T08:03:29.238Z,24.43
2023-03-27T08:04:29.179Z,24.42
2023-03-27T08:05:29.070Z,24.41
2023-03-27T08:06:29.805Z,24.40
2023-03-27T08:07:29.050Z,24.38
2023-03-27T08:08:29.042Z,24.38
2023-03-27T08:09:29.038Z,24.38
2023-03-27T08:11:31.053Z,24.35
2023-03-27T08:12:29.044Z,24.32
2023-03-27T08:13:29.095Z,24.30
2023-03-27T08:14:29.132Z,24.29
2023-03-27T08:15:29.158Z,24.30
2023-03-27T08:16:29.249Z,24.31
2023-03-27T08:17:29.331Z,24.32
2023-03-27T08:18:29.245Z,24.34
2023-03-27T08:19:29.293Z,24.37
2023-03-27T08:20:29.328Z,24.38
2023-03-27T08:21:29.491Z,24.40
2023-03-27T08:23:29.379Z,24.44
2023-03-27T08:24:29.402Z,24.45
2023-03-27T08:25:29.413Z,24.48
2023-03-27T08:26:29.445Z,24.49
2023-03-27T08:27:30.315Z,24.52
2023-03-27T08:28:29.450Z,24.46
2023-03-27T08:29:29.555Z,24.35
2023-03-27T08:30:29.556Z,24.13
2023-03-27T08:31:29.613Z,23.94
2023-03-27T08:32:29.609Z,23.84
2023-03-27T08:33:29.693Z,23.79
2023-03-27T08:34:29.768Z,23.77
2023-03-27T08:35:30.254Z,23.77
2023-03-27T08:36:29.733Z,23.78
2023-03-27T08:37:29.826Z,23.82
2023-03-27T08:39:29.747Z,23.93
2023-03-27T08:40:29.811Z,23.98
2023-03-27T08:41:29.850Z,24.04
2023-03-27T08:42:29.911Z,24.09
2023-03-27T08:43:29.954Z,24.13
2023-03-27T08:44:30.009Z,24.19
2023-03-27T08:45:30.015Z,24.24
2023-03-27T08:46:30.097Z,24.29
2023-03-27T08:47:30.104Z,24.35
2023-03-27T08:48:30.045Z,24.41
2023-03-27T08:49:30.045Z,24.47
2023-03-27T08:50:30.048Z,24.55
2023-03-27T08:51:30.075Z,24.60
2023-03-27T08:52:30.191Z,24.65
2023-03-27T08:53:30.177Z,24.68
2023-03-27T08:54:30.243Z,24.72
2023-03-27T08:55:30.319Z,24.74
2023-03-27T08:56:30.351Z,24.74
2023-03-27T08:57:30.405Z,24.77
2023-03-27T08:58:30.468Z,24.80
2023-03-27T08:59:30.508Z,24.84
2023-03-27T09:00:30.601Z,24.89
2023-03-27T09:01:30.622Z,24.93
2023-03-27T09:02:30.692Z,24.96
2023-03-27T09:03:30.820Z,25.00
2023-03-27T09:04:30.725Z,25.01
2023-03-27T09:05:30.754Z,25.05
2023-03-27T09:06:30.796Z,25.08
2023-03-27T09:07:30.824Z,25.10
2023-03-27T09:08:30.871Z,25.11
2023-03-27T09:09:30.918Z,25.11
2023-03-27T09:10:30.936Z,25.13
2023-03-27T09:11:30.969Z,25.15
2023-03-27T09:12:30.984Z,25.19
2023-03-27T09:13:31.065Z,25.18
2023-03-27T09:14:31.029Z,25.20
2023-03-27T09:15:31.054Z,25.20
2023-03-27T09:16:31.127Z,25.20
2023-03-27T09:17:31.115Z,25.20
2023-03-27T09:19:31.133Z,25.19
2023-03-27T09:20:32.152Z,25.20
2023-03-27T09:21:31.157Z,25.21
2023-03-27T09:23:31.099Z,25.24
2023-03-27T09:24:31.089Z,25.26
2023-03-27T09:25:31.101Z,25.27
2023-03-27T09:27:31.084Z,25.31
2023-03-27T09:28:31.095Z,25.32
2023-03-27T09:29:31.065Z,25.33
2023-03-27T09:30:31.846Z,25.34
2023-03-27T09:31:31.057Z,25.35
2023-03-27T09:32:33.535Z,25.36
2023-03-27T09:33:31.030Z,25.37
2023-03-27T09:35:31.088Z,25.41
2023-03-27T09:36:31.010Z,25.43
2023-03-27T09:37:31.016Z,25.44
2023-03-27T09:39:31.058Z,25.48
2023-03-27T09:40:30.994Z,25.51
2023-03-27T09:41:31.846Z,25.53
2023-03-27T09:43:30.978Z,25.55
2023-03-27T09:44:30.955Z,25.55
2023-03-27T09:45:30.953Z,25.56
2023-03-27T09:46:30.985Z,25.57
2023-03-27T09:47:31.385Z,25.55
2023-03-27T09:48:30.933Z,25.56
2023-03-27T09:49:30.916Z,25.55
2023-03-27T09:50:30.927Z,25.55
2023-03-27T09:51:30.912Z,25.57
2023-03-27T09:52:30.904Z,25.57
2023-03-27T09:53:30.922Z,25.57
2023-03-27T09:55:30.950Z,25.59
2023-03-27T09:56:30.888Z,25.59
2023-03-27T09:57:30.868Z,25.60
2023-03-27T09:59:30.856Z,25.62
2023-03-27T10:00:30.908Z,25.62
2023-03-27T10:01:30.913Z,25.62
2023-03-27T10:03:30.848Z,25.63
2023-03-27T10:04:31.781Z,25.63
2023-03-27T10:05:30.826Z,25.65
2023-03-27T10:07:30.801Z,25.64
2023-03-27T10:08:30.806Z,25.64
2023-03-27T10:09:30.804Z,25.64
2023-03-27T10:11:30.786Z,25.60
2023-03-27T10:12:30.863Z,25.59
2023-03-27T10:13:30.783Z,25.57
2023-03-27T10:14:30.776Z,25.57
2023-03-27T10:15:30.813Z,25.54
2023-03-27T10:16:30.901Z,25.47
2023-03-27T10:17:30.782Z,25.33
2023-03-27T10:18:30.762Z,25.25
2023-03-27T10:19:30.751Z,25.18
2023-03-27T10:20:30.727Z,25.07
2023-03-27T10:21:30.897Z,24.98
2023-03-27T10:23:30.770Z,24.87
2023-03-27T10:24:30.781Z,24.84
2023-03-27T10:25:30.702Z,24.81
2023-03-27T10:27:30.875Z,24.76
2023-03-27T10:28:30.684Z,24.75
2023-03-27T10:29:30.691Z,24.73
2023-03-27T10:30:30.679Z,24.72
2023-03-27T10:31:31.385Z,24.71
2023-03-27T10:32:30.673Z,24.71
2023-03-27T10:33:30.687Z,24.73
2023-03-27T10:34:30.649Z,24.75
2023-03-27T10:35:30.706Z,24.77
2023-03-27T10:36:30.625Z,24.79
2023-03-27T10:37:30.622Z,24.81
2023-03-27T10:38:31.382Z,24.84
2023-03-27T10:39:30.632Z,24.87
2023-03-27T10:40:30.601Z,24.87
2023-03-27T10:41:30.611Z,24.90
2023-03-27T10:42:33.435Z,24.92
2023-03-27T10:43:30.618Z,24.94
2023-03-27T10:44:30.701Z,24.97
2023-03-27T10:45:30.654Z,24.99
2023-03-27T10:47:30.574Z,25.04
2023-03-27T10:48:30.626Z,25.07
2023-03-27T10:49:30.544Z,25.09
2023-03-27T10:51:39.362Z,25.13
2023-03-27T10:52:31.522Z,25.15
2023-03-27T10:53:30.596Z,25.17
2023-03-27T10:55:30.502Z,25.22
2023-03-27T10:56:30.588Z,25.24
2023-03-27T10:57:32.296Z,25.26
2023-03-27T10:59:41.143Z,25.29
2023-03-27T11:00:31.469Z,25.29
2023-03-27T11:01:30.508Z,25.31
2023-03-27T11:03:30.490Z,25.34
2023-03-27T11:04:30.525Z,25.34
2023-03-27T11:05:30.522Z,25.35
2023-03-27T11:07:30.415Z,25.34
2023-03-27T11:08:30.403Z,25.33
2023-03-27T11:09:30.472Z,25.32
2023-03-27T11:11:30.388Z,25.31
2023-03-27T11:12:32.409Z,25.30
2023-03-27T11:13:30.486Z,25.30
2023-03-27T11:15:30.361Z,25.27
2023-03-27T11:16:30.389Z,25.27
2023-03-27T11:17:30.370Z,25.25
2023-03-27T11:19:30.343Z,25.22
2023-03-27T11:20:30.328Z,25.22
2023-03-27T11:21:30.368Z,25.20
2023-03-27T11:22:30.415Z,25.19
2023-03-27T11:23:30.460Z,25.18
2023-03-27T11:24:30.523Z,25.16
2023-03-27T11:25:30.562Z,25.16
2023-03-27T11:26:30.620Z,25.15
2023-03-27T11:27:30.669Z,25.14
2023-03-27T11:28:30.700Z,25.13
2023-03-27T11:29:30.768Z,25.11
2023-03-27T11:30:30.822Z,25.09
2023-03-27T11:31:30.912Z,25.08
2023-03-27T11:32:30.945Z,25.07
2023-03-27T11:33:30.972Z,25.04
2023-03-27T11:34:31.024Z,25.03
2023-03-27T11:35:31.097Z,25.02
2023-03-27T11:36:31.127Z,25.00
2023-03-27T11:37:31.158Z,25.00
2023-03-27T11:38:31.185Z,24.98
2023-03-27T11:39:31.238Z,24.97
2023-03-27T11:40:31.233Z,24.96
2023-03-27T11:41:31.254Z,24.95
2023-03-27T11:42:31.439Z,24.94
2023-03-27T11:43:31.364Z,24.92
2023-03-27T11:44:31.898Z,24.91
2023-03-27T11:45:31.396Z,24.90
2023-03-27T11:46:31.470Z,24.88
2023-03-27T11:47:31.933Z,24.87
2023-03-27T11:48:31.406Z,24.85
2023-03-27T11:49:31.400Z,24.84
2023-03-27T11:51:32.322Z,24.81
2023-03-27T11:52:31.412Z,24.79
2023-03-27T11:53:31.572Z,24.76
2023-03-27T11:55:32.571Z,24.70
2023-03-27T11:56:31.474Z,24.67
2023-03-27T11:57:31.508Z,24.63
2023-03-27T11:58:31.537Z,24.61
2023-03-27T11:59:32.823Z,24.58
2023-03-27T12:00:31.642Z,24.55
2023-03-27T12:01:31.685Z,24.53
2023-03-27T12:02:31.817Z,24.50
2023-03-27T12:03:31.867Z,24.47
2023-03-27T12:04:31.835Z,24.46
2023-03-27T12:05:31.885Z,24.44
2023-03-27T12:06:31.939Z,24.42
2023-03-27T12:07:36.642Z,24.41
2023-03-27T12:08:32.955Z,24.39
2023-03-27T12:09:31.942Z,24.39
2023-03-27T12:11:31.921Z,24.37
2023-03-27T12:12:31.926Z,24.37
2023-03-27T12:13:41.294Z,24.36
2023-03-27T12:14:40.766Z,24.35
2023-03-27T12:15:32.914Z,24.35
2023-03-27T12:16:31.909Z,24.35
2023-03-27T12:17:31.916Z,24.35
2023-03-27T12:19:38.253Z,24.34
2023-03-27T12:20:32.871Z,24.33
2023-03-27T12:21:31.861Z,24.34
2023-03-27T12:23:31.848Z,24.34
2023-03-27T12:24:31.852Z,24.34
2023-03-27T12:25:33.623Z,24.34
2023-03-27T12:27:31.815Z,24.35
2023-03-27T12:28:31.814Z,24.34
2023-03-27T12:29:31.845Z,24.35
2023-03-27T12:31:31.973Z,24.35
2023-03-27T12:32:31.809Z,24.34
2023-03-27T12:33:31.778Z,24.34
2023-03-27T12:35:31.840Z,24.34
2023-03-27T12:36:31.761Z,24.33
2023-03-27T12:37:31.782Z,24.33
2023-03-27T12:38:31.787Z,24.33
2023-03-27T12:39:31.731Z,24.32
2023-03-27T12:40:31.726Z,24.32
2023-03-27T12:41:31.713Z,24.31
2023-03-27T12:43:31.715Z,24.31
2023-03-27T12:44:31.793Z,24.31
2023-03-27T12:45:33.173Z,24.30
2023-03-27T12:46:31.814Z,24.30
2023-03-27T12:47:31.683Z,24.30
2023-03-27T12:48:31.666Z,24.29
2023-03-27T12:49:40.675Z,24.29
2023-03-27T12:50:32.659Z,24.29
2023-03-27T12:51:31.642Z,24.29
2023-03-27T12:52:31.649Z,24.29
2023-03-27T13:08:48.996Z,23.78
2023-03-27T13:09:48.931Z,23.82
2023-03-27T13:10:48.927Z,23.84
2023-03-27T13:11:48.907Z,23.86
2023-03-27T13:12:48.909Z,23.89
2023-03-27T13:13:48.898Z,23.90
2023-03-27T13:14:48.894Z,23.93
2023-03-27T13:15:49.010Z,23.95
2023-03-27T13:16:48.872Z,23.98
2023-03-27T13:17:48.962Z,24.01
2023-03-27T13:18:50.934Z,24.03
2023-03-27T13:19:49.604Z,24.05
2023-03-27T13:20:48.851Z,24.07
2023-03-27T13:21:48.840Z,24.08
2023-03-27T13:22:48.831Z,24.10
2023-03-27T13:23:48.821Z,24.12
2023-03-27T13:24:48.803Z,24.14
2023-03-27T13:25:48.841Z,24.16
2023-03-27T13:26:48.806Z,24.18
2023-03-27T13:27:48.828Z,24.19
2023-03-27T13:28:48.803Z,24.20
2023-03-27T13:29:48.792Z,24.21
2023-03-27T13:30:48.819Z,24.24
2023-03-27T13:31:48.803Z,24.24
2023-03-27T13:32:48.799Z,24.25
2023-03-27T13:33:48.806Z,24.27
2023-03-27T13:34:48.798Z,24.27
2023-03-27T13:35:50.200Z,24.28
2023-03-27T13:36:48.734Z,24.29
2023-03-27T13:37:48.735Z,24.30
2023-03-27T13:38:48.710Z,24.31
2023-03-27T13:39:48.700Z,24.32
2023-03-27T13:40:49.108Z,24.32
2023-03-27T13:41:48.695Z,24.32
2023-03-27T13:42:48.694Z,24.32
2023-03-27T13:43:48.681Z,24.32
2023-03-27T13:44:48.675Z,24.33
2023-03-27T13:45:48.651Z,24.34
2023-03-27T13:46:48.662Z,24.33
2023-03-27T13:47:48.676Z,24.34
2023-03-27T13:48:48.639Z,24.34
2023-03-27T13:49:48.636Z,24.34
2023-03-27T13:50:48.632Z,24.34
2023-03-27T13:51:48.625Z,24.34
2023-03-27T13:52:48.613Z,24.34
2023-03-27T13:53:48.603Z,24.34
2023-03-27T13:54:48.606Z,24.34
2023-03-27T13:55:48.593Z,24.34
2023-03-27T13:56:48.604Z,24.34
2023-03-27T13:57:48.574Z,24.34
2023-03-27T13:58:48.576Z,24.33
2023-03-27T13:59:48.575Z,24.34
2023-03-27T14:00:48.555Z,24.34
2023-03-27T14:01:48.603Z,24.33
2023-03-27T14:02:48.618Z,24.34
2023-03-27T14:03:48.678Z,24.33
2023-03-27T14:04:48.536Z,24.34
2023-03-27T14:05:48.526Z,24.34
2023-03-27T14:06:48.510Z,24.33
2023-03-27T14:07:48.517Z,24.33